This is the latest recevied weather packets stored in our database for station/object YF9UAG-15. If no packets are shown the sender has not sent any weather packets the latest 1 day(s).
| Time | Temp. | Humidity | Pressure | Rain* | Wind** | Luminosity | Snow |
|---|---|---|---|---|---|---|---|
| 1778027467 | 31.11° C | 100% | 1007.9 hPa | - | - | - | - |
| 1778027346 | 31.11° C | 99% | 1007.9 hPa | - | - | - | - |
| 1778027225 | 30.56° C | 99% | 1007.9 hPa | - | - | - | - |
| 1778027104 | 31.11° C | 98% | 1007.9 hPa | - | - | - | - |
| 1778026862 | 31.11° C | 99% | 1008 hPa | - | - | - | - |
| 1778026620 | 31.11° C | 97% | 1008 hPa | - | - | - | - |
| 1778026499 | 31.11° C | 98% | 1008 hPa | - | - | - | - |
| 1778025774 | 32.78° C | 89% | 1008.3 hPa | - | - | - | - |
| 1778025653 | 33.33° C | 88% | 1008.3 hPa | - | - | - | - |
| 1778025532 | 33.33° C | 88% | 1008.4 hPa | - | - | - | - |
| 1778025411 | 33.89° C | 84% | 1008.4 hPa | - | - | - | - |
| 1778025290 | 32.78° C | 90% | 1008.4 hPa | - | - | - | - |
| 1778025048 | 31.67° C | 95% | 1008.4 hPa | - | - | - | - |
| 1778023718 | 30° C | 100% | 1008.6 hPa | - | - | - | - |
| 1778023597 | 30° C | 100% | 1008.6 hPa | - | - | - | - |
| 1778023476 | 29.44° C | 100% | 1008.6 hPa | - | - | - | - |
| 1778021541 | 28.89° C | 100% | 1008.7 hPa | - | - | - | - |
| 1778021299 | 28.33° C | 100% | 1008.4 hPa | - | - | - | - |
| 1778020936 | 28.89° C | 100% | 1008.4 hPa | - | - | - | - |
| 1778019727 | 29.44° C | 100% | 1008 hPa | - | - | - | - |
| 1778019606 | 29.44° C | 100% | 1008 hPa | - | - | - | - |
| 1778019485 | 29.44° C | 100% | 1008 hPa | - | - | - | - |
| 1778019243 | 28.89° C | 100% | 1007.9 hPa | - | - | - | - |
| 1778017550 | 27.78° C | 100% | 1007.9 hPa | - | - | - | - |
| 1778017429 | 27.78° C | 100% | 1007.9 hPa | - | - | - | - |
* Rain since midnight (hover to see other rain measurements)
** Current wind speed in m/s (hover to see current wind gust speed)